sensor_id;sensor_type;location;lat;lon;timestamp;pressure;altitude;pressure_sealevel;temperature;humidity
61678;BME280;47575;52.054;4.334;2022-09-27T00:00:44;99874.72;;;11.43;100.00
61678;BME280;47575;52.054;4.334;2022-09-27T00:03:12;99856.78;;;11.35;100.00
61678;BME280;47575;52.054;4.334;2022-09-27T00:05:40;99858.47;;;11.36;100.00
61678;BME280;47575;52.054;4.334;2022-09-27T00:08:07;99859.31;;;11.37;100.00
61678;BME280;47575;52.054;4.334;2022-09-27T00:10:36;99848.75;;;11.56;100.00
61678;BME280;47575;52.054;4.334;2022-09-27T00:13:04;99844.75;;;11.49;100.00
61678;BME280;47575;52.054;4.334;2022-09-27T00:15:31;99850.91;;;11.48;100.00
61678;BME280;47575;52.054;4.334;2022-09-27T00:17:58;99840.09;;;11.54;100.00
61678;BME280;47575;52.054;4.334;2022-09-27T00:20:26;99847.94;;;11.71;100.00
61678;BME280;47575;52.054;4.334;2022-09-27T00:22:53;99851.78;;;11.81;100.00
61678;BME280;47575;52.054;4.334;2022-09-27T00:25:20;99842.84;;;11.85;100.00
61678;BME280;47575;52.054;4.334;2022-09-27T00:27:49;99838.13;;;11.75;100.00
61678;BME280;47575;52.054;4.334;2022-09-27T00:30:17;99844.75;;;11.82;100.00
61678;BME280;47575;52.054;4.334;2022-09-27T00:32:44;99851.69;;;11.83;100.00
61678;BME280;47575;52.054;4.334;2022-09-27T00:35:11;99834.28;;;11.82;100.00
61678;BME280;47575;52.054;4.334;2022-09-27T00:37:38;99838.03;;;11.94;100.00
61678;BME280;47575;52.054;4.334;2022-09-27T00:40:06;99840.81;;;11.90;100.00
61678;BME280;47575;52.054;4.334;2022-09-27T00:42:34;99838.59;;;11.99;100.00
61678;BME280;47575;52.054;4.334;2022-09-27T00:45:06;99843.38;;;12.08;100.00
61678;BME280;47575;52.054;4.334;2022-09-27T00:47:38;99845.41;;;12.03;100.00
61678;BME280;47575;52.054;4.334;2022-09-27T00:50:13;99841.19;;;12.00;100.00
61678;BME280;47575;52.054;4.334;2022-09-27T00:52:47;99845.31;;;12.04;100.00
61678;BME280;47575;52.054;4.334;2022-09-27T00:55:18;99849.38;;;12.10;100.00
61678;BME280;47575;52.054;4.334;2022-09-27T00:57:46;99850.97;;;12.12;100.00
61678;BME280;47575;52.054;4.334;2022-09-27T01:00:16;99853.50;;;12.14;100.00
61678;BME280;47575;52.054;4.334;2022-09-27T01:02:46;99858.84;;;12.12;100.00
61678;BME280;47575;52.054;4.334;2022-09-27T01:05:16;99853.50;;;12.14;100.00
61678;BME280;47575;52.054;4.334;2022-09-27T01:07:45;99848.44;;;12.11;100.00
61678;BME280;47575;52.054;4.334;2022-09-27T01:10:13;99850.81;;;12.15;100.00
61678;BME280;47575;52.054;4.334;2022-09-27T01:12:51;99838.38;;;12.19;100.00
61678;BME280;47575;52.054;4.334;2022-09-27T01:15:27;99847.41;;;12.13;100.00
61678;BME280;47575;52.054;4.334;2022-09-27T01:18:10;99837.63;;;12.17;100.00
61678;BME280;47575;52.054;4.334;2022-09-27T01:20:57;99846.16;;;12.20;100.00
61678;BME280;47575;52.054;4.334;2022-09-27T01:23:56;99859.28;;;12.20;100.00
61678;BME280;47575;52.054;4.334;2022-09-27T01:26:39;99855.56;;;12.09;100.00
61678;BME280;47575;52.054;4.334;2022-09-27T01:29:15;99846.47;;;11.99;100.00
61678;BME280;47575;52.054;4.334;2022-09-27T01:31:55;99853.69;;;11.95;100.00
61678;BME280;47575;52.054;4.334;2022-09-27T01:34:32;99847.81;;;11.90;100.00
61678;BME280;47575;52.054;4.334;2022-09-27T01:37:07;99847.38;;;11.82;100.00
61678;BME280;47575;52.054;4.334;2022-09-27T01:39:44;99853.91;;;11.90;100.00
61678;BME280;47575;52.054;4.334;2022-09-27T01:42:46;99846.41;;;11.84;100.00
61678;BME280;47575;52.054;4.334;2022-09-27T01:45:21;99848.22;;;11.82;100.00
61678;BME280;47575;52.054;4.334;2022-09-27T01:48:10;99856.88;;;11.84;100.00
61678;BME280;47575;52.054;4.334;2022-09-27T01:51:03;99854.19;;;11.86;100.00
61678;BME280;47575;52.054;4.334;2022-09-27T01:53:35;99850.75;;;11.84;100.00
61678;BME280;47575;52.054;4.334;2022-09-27T01:56:28;99845.59;;;11.82;100.00
61678;BME280;47575;52.054;4.334;2022-09-27T01:59:07;99847.38;;;11.82;100.00
61678;BME280;47575;52.054;4.334;2022-09-27T02:01:43;99851.84;;;11.80;100.00
61678;BME280;47575;52.054;4.334;2022-09-27T02:04:17;99848.38;;;11.79;100.00
61678;BME280;47575;52.054;4.334;2022-09-27T02:06:52;99854.69;;;11.93;100.00
61678;BME280;47575;52.054;4.334;2022-09-27T02:09:26;99864.81;;;11.83;100.00
61678;BME280;47575;52.054;4.334;2022-09-27T02:12:09;99873.53;;;11.66;100.00
61678;BME280;47575;52.054;4.334;2022-09-27T02:14:42;99870.94;;;11.49;100.00
61678;BME280;47575;52.054;4.334;2022-09-27T02:17:17;99872.41;;;11.37;100.00
61678;BME280;47575;52.054;4.334;2022-09-27T02:19:53;99877.03;;;11.15;100.00
61678;BME280;47575;52.054;4.334;2022-09-27T02:22:35;99883.41;;;11.09;100.00
61678;BME280;47575;52.054;4.334;2022-09-27T02:25:11;99875.09;;;11.01;100.00
61678;BME280;47575;52.054;4.334;2022-09-27T02:27:47;99870.09;;;10.96;100.00
61678;BME280;47575;52.054;4.334;2022-09-27T02:30:19;99865.00;;;10.93;100.00
61678;BME280;47575;52.054;4.334;2022-09-27T02:32:52;99868.47;;;10.94;100.00
61678;BME280;47575;52.054;4.334;2022-09-27T02:35:24;99875.63;;;10.90;100.00
61678;BME280;47575;52.054;4.334;2022-09-27T02:37:53;99859.63;;;10.96;100.00
61678;BME280;47575;52.054;4.334;2022-09-27T02:40:21;99863.09;;;10.97;100.00
61678;BME280;47575;52.054;4.334;2022-09-27T02:42:49;99859.84;;;10.92;100.00
61678;BME280;47575;52.054;4.334;2022-09-27T02:45:18;99864.91;;;10.95;100.00
61678;BME280;47575;52.054;4.334;2022-09-27T02:47:56;99866.84;;;10.91;100.00
61678;BME280;47575;52.054;4.334;2022-09-27T02:50:41;99867.03;;;10.88;100.00
61678;BME280;47575;52.054;4.334;2022-09-27T02:53:39;99866.16;;;10.88;100.00
61678;BME280;47575;52.054;4.334;2022-09-27T02:56:36;99854.78;;;10.89;100.00
61678;BME280;47575;52.054;4.334;2022-09-27T02:59:34;99864.03;;;10.96;100.00
61678;BME280;47575;52.054;4.334;2022-09-27T03:02:30;99862.00;;;11.01;100.00
61678;BME280;47575;52.054;4.334;2022-09-27T03:05:26;99850.97;;;10.94;100.00
61678;BME280;47575;52.054;4.334;2022-09-27T03:07:57;99856.09;;;10.97;100.00
61678;BME280;47575;52.054;4.334;2022-09-27T03:10:26;99854.22;;;10.99;100.00
61678;BME280;47575;52.054;4.334;2022-09-27T03:12:55;99862.63;;;11.06;100.00
61678;BME280;47575;52.054;4.334;2022-09-27T03:15:23;99869.34;;;11.12;100.00
61678;BME280;47575;52.054;4.334;2022-09-27T03:18:10;99864.78;;;11.15;100.00
61678;BME280;47575;52.054;4.334;2022-09-27T03:20:41;99875.03;;;11.20;100.00
61678;BME280;47575;52.054;4.334;2022-09-27T03:23:15;99867.03;;;11.05;100.00
61678;BME280;47575;52.054;4.334;2022-09-27T03:25:42;99851.38;;;10.87;100.00
61678;BME280;47575;52.054;4.334;2022-09-27T03:28:11;99881.63;;;10.75;100.00
61678;BME280;47575;52.054;4.334;2022-09-27T03:30:41;99905.06;;;10.59;100.00
61678;BME280;47575;52.054;4.334;2022-09-27T03:33:10;99915.03;;;10.51;100.00
61678;BME280;47575;52.054;4.334;2022-09-27T03:35:46;99898.84;;;10.43;100.00
61678;BME280;47575;52.054;4.334;2022-09-27T03:38:15;99902.44;;;10.40;100.00
61678;BME280;47575;52.054;4.334;2022-09-27T03:40:43;99893.09;;;10.35;100.00
61678;BME280;47575;52.054;4.334;2022-09-27T03:43:11;99905.28;;;10.36;100.00
61678;BME280;47575;52.054;4.334;2022-09-27T03:45:38;99924.56;;;10.33;100.00
61678;BME280;47575;52.054;4.334;2022-09-27T03:48:09;99918.38;;;10.36;100.00
61678;BME280;47575;52.054;4.334;2022-09-27T03:50:36;99918.56;;;10.31;100.00
61678;BME280;47575;52.054;4.334;2022-09-27T03:53:03;99913.41;;;10.30;100.00
61678;BME280;47575;52.054;4.334;2022-09-27T03:55:32;99908.31;;;10.26;100.00
61678;BME280;47575;52.054;4.334;2022-09-27T03:58:00;99908.31;;;10.26;100.00
61678;BME280;47575;52.054;4.334;2022-09-27T04:00:27;99919.25;;;10.35;100.00
61678;BME280;47575;52.054;4.334;2022-09-27T04:02:58;99923.53;;;10.37;100.00
61678;BME280;47575;52.054;4.334;2022-09-27T04:05:26;99925.34;;;10.35;100.00
61678;BME280;47575;52.054;4.334;2022-09-27T04:08:01;99916.59;;;10.36;100.00
61678;BME280;47575;52.054;4.334;2022-09-27T04:10:33;99920.88;;;10.56;100.00
61678;BME280;47575;52.054;4.334;2022-09-27T04:13:02;99929.28;;;10.63;100.00
61678;BME280;47575;52.054;4.334;2022-09-27T04:15:34;99918.75;;;10.64;100.00
61678;BME280;47575;52.054;4.334;2022-09-27T04:18:21;99923.78;;;10.69;100.00
61678;BME280;47575;52.054;4.334;2022-09-27T04:21:07;99916.31;;;10.78;100.00
61678;BME280;47575;52.054;4.334;2022-09-27T04:23:39;99908.34;;;10.81;100.00
61678;BME280;47575;52.054;4.334;2022-09-27T04:26:09;99906.78;;;10.77;100.00
61678;BME280;47575;52.054;4.334;2022-09-27T04:28:46;99913.50;;;10.83;100.00
61678;BME280;47575;52.054;4.334;2022-09-27T04:31:16;99906.66;;;10.80;100.00
61678;BME280;47575;52.054;4.334;2022-09-27T04:33:53;99909.47;;;10.76;100.00
61678;BME280;47575;52.054;4.334;2022-09-27T04:36:26;99906.09;;;10.74;100.00
61678;BME280;47575;52.054;4.334;2022-09-27T04:39:07;99915.97;;;10.86;100.00
61678;BME280;47575;52.054;4.334;2022-09-27T04:41:38;99908.06;;;10.88;100.00
61678;BME280;47575;52.054;4.334;2022-09-27T04:44:05;99912.41;;;10.87;100.00
61678;BME280;47575;52.054;4.334;2022-09-27T04:46:33;99913.72;;;10.78;100.00
61678;BME280;47575;52.054;4.334;2022-09-27T04:49:01;99905.09;;;10.58;100.00
61678;BME280;47575;52.054;4.334;2022-09-27T04:51:31;99901.31;;;10.46;100.00
61678;BME280;47575;52.054;4.334;2022-09-27T04:53:59;99899.81;;;10.40;100.00
61678;BME280;47575;52.054;4.334;2022-09-27T04:56:30;99891.63;;;10.29;100.00
61678;BME280;47575;52.054;4.334;2022-09-27T04:58:58;99894.31;;;10.27;100.00
61678;BME280;47575;52.054;4.334;2022-09-27T05:01:26;99896.31;;;10.22;100.00
61678;BME280;47575;52.054;4.334;2022-09-27T05:04:16;99904.06;;;10.24;100.00
61678;BME280;47575;52.054;4.334;2022-09-27T05:06:47;99909.16;;;10.27;100.00
61678;BME280;47575;52.054;4.334;2022-09-27T05:09:22;99902.50;;;10.39;100.00
61678;BME280;47575;52.054;4.334;2022-09-27T05:11:52;99915.16;;;10.48;100.00
61678;BME280;47575;52.054;4.334;2022-09-27T05:14:23;99903.28;;;10.60;100.00
61678;BME280;47575;52.054;4.334;2022-09-27T05:17:14;99913.31;;;10.69;100.00
61678;BME280;47575;52.054;4.334;2022-09-27T05:19:49;99913.94;;;10.74;100.00
61678;BME280;47575;52.054;4.334;2022-09-27T05:22:26;99908.72;;;10.74;100.00
61678;BME280;47575;52.054;4.334;2022-09-27T05:24:53;99908.06;;;10.69;100.00
61678;BME280;47575;52.054;4.334;2022-09-27T05:27:20;99906.94;;;10.56;100.00
61678;BME280;47575;52.054;4.334;2022-09-27T05:29:49;99902.72;;;10.53;100.00
61678;BME280;47575;52.054;4.334;2022-09-27T05:32:29;99913.31;;;10.50;100.00
61678;BME280;47575;52.054;4.334;2022-09-27T05:35:25;99907.22;;;10.49;100.00
61678;BME280;47575;52.054;4.334;2022-09-27T05:37:53;99915.16;;;10.48;100.00
61678;BME280;47575;52.054;4.334;2022-09-27T05:40:21;99914.03;;;10.53;100.00
61678;BME280;47575;52.054;4.334;2022-09-27T05:42:50;99919.47;;;10.49;100.00
61678;BME280;47575;52.054;4.334;2022-09-27T05:45:21;99916.56;;;10.55;100.00
61678;BME280;47575;52.054;4.334;2022-09-27T05:47:53;99918.53;;;10.50;100.00
61678;BME280;47575;52.054;4.334;2022-09-27T05:50:20;99923.78;;;10.50;100.00
61678;BME280;47575;52.054;4.334;2022-09-27T05:52:47;99930.25;;;10.43;100.00
61678;BME280;47575;52.054;4.334;2022-09-27T05:55:16;99919.53;;;10.47;100.00
61678;BME280;47575;52.054;4.334;2022-09-27T05:57:53;99917.78;;;10.48;100.00
61678;BME280;47575;52.054;4.334;2022-09-27T06:00:23;99916.00;;;10.48;100.00
61678;BME280;47575;52.054;4.334;2022-09-27T06:02:55;99916.00;;;10.48;100.00
61678;BME280;47575;52.054;4.334;2022-09-27T06:05:41;99912.06;;;10.59;100.00
61678;BME280;47575;52.054;4.334;2022-09-27T06:08:11;99908.53;;;10.60;100.00
61678;BME280;47575;52.054;4.334;2022-09-27T06:10:46;99911.69;;;10.66;100.00
61678;BME280;47575;52.054;4.334;2022-09-27T06:13:15;99903.47;;;10.74;100.00
61678;BME280;47575;52.054;4.334;2022-09-27T06:15:44;99905.94;;;10.77;100.00
61678;BME280;47575;52.054;4.334;2022-09-27T06:18:14;99904.03;;;10.80;100.00
61678;BME280;47575;52.054;4.334;2022-09-27T06:20:45;99898.56;;;10.85;100.00
61678;BME280;47575;52.054;4.334;2022-09-27T06:23:15;99886.94;;;10.91;100.00
61678;BME280;47575;52.054;4.334;2022-09-27T06:25:43;99899.59;;;11.00;100.00
61678;BME280;47575;52.054;4.334;2022-09-27T06:28:34;99887.13;;;11.05;100.00
61678;BME280;47575;52.054;4.334;2022-09-27T06:31:06;99888.72;;;11.07;100.00
61678;BME280;47575;52.054;4.334;2022-09-27T06:33:40;99888.59;;;11.11;100.00
61678;BME280;47575;52.054;4.334;2022-09-27T06:36:07;99872.56;;;11.17;100.00
61678;BME280;47575;52.054;4.334;2022-09-27T06:38:37;99879.06;;;11.27;100.00
61678;BME280;47575;52.054;4.334;2022-09-27T06:41:14;99891.13;;;11.29;100.00
61678;BME280;47575;52.054;4.334;2022-09-27T06:44:07;99894.75;;;11.27;100.00
61678;BME280;47575;52.054;4.334;2022-09-27T06:46:54;99895.53;;;11.29;100.00
61678;BME280;47575;52.054;4.334;2022-09-27T06:49:41;99900.94;;;11.26;100.00
61678;BME280;47575;52.054;4.334;2022-09-27T06:52:09;99907.00;;;11.26;100.00
61678;BME280;47575;52.054;4.334;2022-09-27T06:54:36;99908.53;;;11.30;100.00
61678;BME280;47575;52.054;4.334;2022-09-27T06:57:04;99913.25;;;11.24;100.00
61678;BME280;47575;52.054;4.334;2022-09-27T06:59:31;99922.88;;;11.23;100.00
61678;BME280;47575;52.054;4.334;2022-09-27T07:02:36;99942.81;;;11.08;100.00
61678;BME280;47575;52.054;4.334;2022-09-27T07:05:31;99948.91;;;10.73;100.00
61678;BME280;47575;52.054;4.334;2022-09-27T07:08:08;99952.50;;;10.51;100.00
61678;BME280;47575;52.054;4.334;2022-09-27T07:10:38;99954.06;;;10.37;100.00
61678;BME280;47575;52.054;4.334;2022-09-27T07:13:07;99952.00;;;10.24;100.00
61678;BME280;47575;52.054;4.334;2022-09-27T07:15:38;99954.06;;;10.16;100.00
61678;BME280;47575;52.054;4.334;2022-09-27T07:18:12;99954.16;;;10.15;100.00
61678;BME280;47575;52.054;4.334;2022-09-27T07:20:39;99947.16;;;10.15;100.00
61678;BME280;47575;52.054;4.334;2022-09-27T07:23:08;99947.75;;;10.20;100.00
61678;BME280;47575;52.054;4.334;2022-09-27T07:25:36;99949.22;;;10.27;100.00
61678;BME280;47575;52.054;4.334;2022-09-27T07:28:05;99945.41;;;10.35;100.00
61678;BME280;47575;52.054;4.334;2022-09-27T07:30:33;99943.31;;;10.43;100.00
61678;BME280;47575;52.054;4.334;2022-09-27T07:33:03;99954.13;;;10.54;100.00
61678;BME280;47575;52.054;4.334;2022-09-27T07:35:32;99970.41;;;10.61;100.00
61678;BME280;47575;52.054;4.334;2022-09-27T07:38:00;99973.28;;;10.54;100.00
61678;BME280;47575;52.054;4.334;2022-09-27T07:40:28;99975.81;;;10.56;100.00
61678;BME280;47575;52.054;4.334;2022-09-27T07:42:56;99978.72;;;10.50;100.00
61678;BME280;47575;52.054;4.334;2022-09-27T07:45:25;99987.50;;;10.49;100.00
61678;BME280;47575;52.054;4.334;2022-09-27T07:48:31;99990.25;;;10.46;100.00
61678;BME280;47575;52.054;4.334;2022-09-27T07:51:13;100000.88;;;10.43;100.00
61678;BME280;47575;52.054;4.334;2022-09-27T07:53:43;100001.16;;;10.37;100.00
61678;BME280;47575;52.054;4.334;2022-09-27T07:56:29;99999.72;;;10.48;100.00
61678;BME280;47575;52.054;4.334;2022-09-27T07:58:58;100000.38;;;10.53;100.00
61678;BME280;47575;52.054;4.334;2022-09-27T08:01:25;99992.19;;;10.61;100.00
61678;BME280;47575;52.054;4.334;2022-09-27T08:03:53;99996.28;;;10.67;100.00
61678;BME280;47575;52.054;4.334;2022-09-27T08:06:22;100002.97;;;10.72;100.00
61678;BME280;47575;52.054;4.334;2022-09-27T08:08:50;100006.41;;;10.74;100.00
61678;BME280;47575;52.054;4.334;2022-09-27T08:11:18;100009.63;;;10.79;100.00
61678;BME280;47575;52.054;4.334;2022-09-27T08:13:48;100023.28;;;10.86;100.00
61678;BME280;47575;52.054;4.334;2022-09-27T08:16:19;100032.63;;;10.92;100.00
61678;BME280;47575;52.054;4.334;2022-09-27T08:19:13;100036.88;;;10.94;100.00
61678;BME280;47575;52.054;4.334;2022-09-27T08:22:00;100040.34;;;10.95;100.00
61678;BME280;47575;52.054;4.334;2022-09-27T08:24:33;100044.22;;;10.86;100.00
61678;BME280;47575;52.054;4.334;2022-09-27T08:27:20;100041.41;;;10.72;100.00
61678;BME280;47575;52.054;4.334;2022-09-27T08:29:58;100040.63;;;10.70;100.00
61678;BME280;47575;52.054;4.334;2022-09-27T08:32:25;100034.69;;;10.66;100.00
61678;BME280;47575;52.054;4.334;2022-09-27T08:34:53;100031.22;;;10.66;100.00
61678;BME280;47575;52.054;4.334;2022-09-27T08:37:23;100027.78;;;10.65;100.00
61678;BME280;47575;52.054;4.334;2022-09-27T08:39:51;100022.47;;;10.67;100.00
61678;BME280;47575;52.054;4.334;2022-09-27T08:42:25;100012.75;;;10.69;100.00
61678;BME280;47575;52.054;4.334;2022-09-27T08:45:01;100013.97;;;10.62;100.00
61678;BME280;47575;52.054;4.334;2022-09-27T08:47:34;100017.22;;;10.67;100.00
61678;BME280;47575;52.054;4.334;2022-09-27T08:50:18;100015.94;;;10.75;100.00
61678;BME280;47575;52.054;4.334;2022-09-27T08:52:51;100003.84;;;10.92;100.00
61678;BME280;47575;52.054;4.334;2022-09-27T08:55:26;100007.59;;;11.05;100.00
61678;BME280;47575;52.054;4.334;2022-09-27T08:57:56;100012.78;;;11.24;100.00
61678;BME280;47575;52.054;4.334;2022-09-27T09:00:27;100008.66;;;11.37;100.00
61678;BME280;47575;52.054;4.334;2022-09-27T09:02:55;100020.31;;;11.49;100.00
61678;BME280;47575;52.054;4.334;2022-09-27T09:05:28;100021.84;;;11.53;100.00
61678;BME280;47575;52.054;4.334;2022-09-27T09:08:07;100025.25;;;11.55;100.00
61678;BME280;47575;52.054;4.334;2022-09-27T09:10:48;100023.41;;;11.57;100.00
61678;BME280;47575;52.054;4.334;2022-09-27T09:13:48;100027.72;;;11.58;100.00
61678;BME280;47575;52.054;4.334;2022-09-27T09:16:29;100035.09;;;11.50;100.00
61678;BME280;47575;52.054;4.334;2022-09-27T09:19:12;100042.69;;;11.56;100.00
61678;BME280;47575;52.054;4.334;2022-09-27T09:22:10;100046.72;;;11.44;100.00
61678;BME280;47575;52.054;4.334;2022-09-27T09:24:50;100055.41;;;11.27;100.00
61678;BME280;47575;52.054;4.334;2022-09-27T09:27:26;100049.13;;;11.13;100.00
61678;BME280;47575;52.054;4.334;2022-09-27T09:30:03;100041.34;;;10.92;100.00
61678;BME280;47575;52.054;4.334;2022-09-27T09:32:45;100052.25;;;10.83;100.00
61678;BME280;47575;52.054;4.334;2022-09-27T09:35:20;100052.59;;;10.75;100.00
61678;BME280;47575;52.054;4.334;2022-09-27T09:37:52;100058.72;;;10.56;100.00
61678;BME280;47575;52.054;4.334;2022-09-27T09:40:28;100062.78;;;10.42;100.00
61678;BME280;47575;52.054;4.334;2022-09-27T09:43:00;100059.38;;;10.20;100.00
61678;BME280;47575;52.054;4.334;2022-09-27T09:45:30;100065.16;;;10.08;100.00
61678;BME280;47575;52.054;4.334;2022-09-27T09:48:04;100067.09;;;10.03;100.00
61678;BME280;47575;52.054;4.334;2022-09-27T09:50:39;100061.84;;;9.82;100.00
61678;BME280;47575;52.054;4.334;2022-09-27T09:53:13;100067.34;;;9.96;100.00
61678;BME280;47575;52.054;4.334;2022-09-27T09:55:47;100060.03;;;9.84;100.00
61678;BME280;47575;52.054;4.334;2022-09-27T09:58:20;100077.03;;;9.94;100.00
61678;BME280;47575;52.054;4.334;2022-09-27T10:00:55;100067.41;;;9.95;100.00
61678;BME280;47575;52.054;4.334;2022-09-27T10:03:26;100064.53;;;9.81;100.00
61678;BME280;47575;52.054;4.334;2022-09-27T10:05:53;100060.06;;;9.83;100.00
61678;BME280;47575;52.054;4.334;2022-09-27T10:08:21;100068.13;;;9.78;100.00
61678;BME280;47575;52.054;4.334;2022-09-27T10:11:03;100060.69;;;9.69;100.00
61678;BME280;47575;52.054;4.334;2022-09-27T10:13:47;100047.72;;;9.66;100.00
61678;BME280;47575;52.054;4.334;2022-09-27T10:16:16;100041.06;;;9.79;100.00
61678;BME280;47575;52.054;4.334;2022-09-27T10:18:46;100049.63;;;9.83;100.00
61678;BME280;47575;52.054;4.334;2022-09-27T10:21:18;100050.75;;;9.77;100.00
61678;BME280;47575;52.054;4.334;2022-09-27T10:24:04;100058.06;;;9.89;100.00
61678;BME280;47575;52.054;4.334;2022-09-27T10:26:59;100055.97;;;9.77;100.00
61678;BME280;47575;52.054;4.334;2022-09-27T10:29:30;100059.38;;;9.79;100.00
61678;BME280;47575;52.054;4.334;2022-09-27T10:31:58;100063.09;;;9.94;100.00
61678;BME280;47575;52.054;4.334;2022-09-27T10:34:37;100063.81;;;9.97;100.00
61678;BME280;47575;52.054;4.334;2022-09-27T10:37:14;100058.41;;;10.02;100.00
61678;BME280;47575;52.054;4.334;2022-09-27T10:40:24;100056.97;;;9.95;100.00
61678;BME280;47575;52.054;4.334;2022-09-27T10:42:54;100064.38;;;10.06;100.00
61678;BME280;47575;52.054;4.334;2022-09-27T10:45:28;100058.06;;;10.10;100.00
61678;BME280;47575;52.054;4.334;2022-09-27T10:48:00;100057.69;;;10.19;100.00
61678;BME280;47575;52.054;4.334;2022-09-27T10:50:39;100063.34;;;10.30;100.00
61678;BME280;47575;52.054;4.334;2022-09-27T10:53:23;100061.75;;;10.46;100.00
61678;BME280;47575;52.054;4.334;2022-09-27T10:56:02;100062.69;;;10.64;100.00
61678;BME280;47575;52.054;4.334;2022-09-27T10:58:33;100065.13;;;10.88;100.00
61678;BME280;47575;52.054;4.334;2022-09-27T11:01:05;100065.19;;;11.05;100.00
61678;BME280;47575;52.054;4.334;2022-09-27T11:03:47;100070.63;;;11.19;100.00
61678;BME280;47575;52.054;4.334;2022-09-27T11:06:27;100068.72;;;11.23;100.00
61678;BME280;47575;52.054;4.334;2022-09-27T11:08:56;100068.13;;;11.35;100.00
61678;BME280;47575;52.054;4.334;2022-09-27T11:11:35;100067.88;;;11.58;100.00
61678;BME280;47575;52.054;4.334;2022-09-27T11:14:10;100061.56;;;11.62;100.00
61678;BME280;47575;52.054;4.334;2022-09-27T11:16:48;100070.38;;;11.79;100.00
61678;BME280;47575;52.054;4.334;2022-09-27T11:19:31;100065.94;;;11.98;100.00
61678;BME280;47575;52.054;4.334;2022-09-27T11:22:07;100074.94;;;12.27;100.00
61678;BME280;47575;52.054;4.334;2022-09-27T11:24:54;100065.94;;;12.15;100.00
61678;BME280;47575;52.054;4.334;2022-09-27T11:27:37;100064.88;;;12.35;100.00
61678;BME280;47575;52.054;4.334;2022-09-27T11:30:10;100059.19;;;12.44;100.00
61678;BME280;47575;52.054;4.334;2022-09-27T11:33:09;100061.19;;;12.39;100.00
61678;BME280;47575;52.054;4.334;2022-09-27T11:35:53;100052.75;;;12.50;100.00
61678;BME280;47575;52.054;4.334;2022-09-27T11:38:27;100040.41;;;12.52;100.00
61678;BME280;47575;52.054;4.334;2022-09-27T11:41:15;100022.63;;;12.57;100.00
61678;BME280;47575;52.054;4.334;2022-09-27T11:43:59;100013.66;;;12.61;100.00
61678;BME280;47575;52.054;4.334;2022-09-27T11:46:31;100006.47;;;12.81;100.00
61678;BME280;47575;52.054;4.334;2022-09-27T11:49:15;99988.09;;;12.81;100.00
61678;BME280;47575;52.054;4.334;2022-09-27T11:52:16;99981.41;;;12.91;100.00
61678;BME280;47575;52.054;4.334;2022-09-27T11:55:01;99965.28;;;12.81;100.00
61678;BME280;47575;52.054;4.334;2022-09-27T11:57:35;99949.72;;;12.94;100.00
61678;BME280;47575;52.054;4.334;2022-09-27T12:00:17;99948.94;;;13.08;100.00
61678;BME280;47575;52.054;4.334;2022-09-27T12:06:05;99932.66;;;14.05;100.00
61678;BME280;47575;52.054;4.334;2022-09-27T12:08:48;99922.38;;;14.72;100.00
61678;BME280;47575;52.054;4.334;2022-09-27T12:11:22;99909.94;;;14.47;100.00
61678;BME280;47575;52.054;4.334;2022-09-27T12:13:56;99897.84;;;14.43;100.00
61678;BME280;47575;52.054;4.334;2022-09-27T12:16:25;99913.84;;;14.40;100.00
61678;BME280;47575;52.054;4.334;2022-09-27T12:18:54;99888.59;;;14.23;100.00
61678;BME280;47575;52.054;4.334;2022-09-27T12:21:46;99885.97;;;14.09;100.00
61678;BME280;47575;52.054;4.334;2022-09-27T12:24:19;99883.16;;;13.98;100.00
61678;BME280;47575;52.054;4.334;2022-09-27T12:27:12;99867.47;;;14.10;100.00
61678;BME280;47575;52.054;4.334;2022-09-27T12:29:41;99868.03;;;14.01;100.00
61678;BME280;47575;52.054;4.334;2022-09-27T12:32:16;99868.56;;;13.92;100.00
61678;BME280;47575;52.054;4.334;2022-09-27T12:34:49;99860.88;;;13.75;100.00
61678;BME280;47575;52.054;4.334;2022-09-27T12:37:21;99863.50;;;13.61;100.00
61678;BME280;47575;52.054;4.334;2022-09-27T12:39:53;99871.28;;;13.48;100.00
61678;BME280;47575;52.054;4.334;2022-09-27T12:42:32;99866.91;;;13.33;100.00
61678;BME280;47575;52.054;4.334;2022-09-27T12:45:14;99867.56;;;13.22;100.00
61678;BME280;47575;52.054;4.334;2022-09-27T12:47:53;99859.88;;;13.03;100.00
61678;BME280;47575;52.054;4.334;2022-09-27T12:50:28;99861.84;;;12.99;100.00
61678;BME280;47575;52.054;4.334;2022-09-27T12:53:02;99860.84;;;13.16;100.00
61678;BME280;47575;52.054;4.334;2022-09-27T12:55:43;99856.41;;;13.33;100.00
61678;BME280;47575;52.054;4.334;2022-09-27T12:58:27;99862.19;;;13.53;100.00
61678;BME280;47575;52.054;4.334;2022-09-27T13:00:58;99863.00;;;13.40;100.00
61678;BME280;47575;52.054;4.334;2022-09-27T13:03:42;99862.91;;;13.55;100.00
61678;BME280;47575;52.054;4.334;2022-09-27T13:06:40;99848.88;;;13.56;100.00
61678;BME280;47575;52.054;4.334;2022-09-27T13:09:29;99851.31;;;13.74;100.00
61678;BME280;47575;52.054;4.334;2022-09-27T13:12:04;99837.56;;;13.54;100.00
61678;BME280;47575;52.054;4.334;2022-09-27T13:14:40;99843.13;;;13.64;100.00
61678;BME280;47575;52.054;4.334;2022-09-27T13:17:33;99837.09;;;13.62;100.00
61678;BME280;47575;52.054;4.334;2022-09-27T13:20:36;99832.41;;;13.53;100.00
61678;BME280;47575;52.054;4.334;2022-09-27T13:26:47;99838.03;;;13.47;100.00
61678;BME280;47575;52.054;4.334;2022-09-27T13:29:29;99832.41;;;13.39;100.00
61678;BME280;47575;52.054;4.334;2022-09-27T13:32:24;99822.81;;;13.38;100.00
61678;BME280;47575;52.054;4.334;2022-09-27T13:35:25;99825.19;;;13.42;100.00
61678;BME280;47575;52.054;4.334;2022-09-27T13:38:19;99824.72;;;13.36;100.00